Time;durP1;ratioP1;P1;durP2;ratioP2;P2;SDS_P1;SDS_P2;PMS_P1;PMS_P2;Temp;Humidity;BMP_temperature;BMP_pressure;BME280_temperature;BME280_humidity;BME280_pressure;Samples;Min_cycle;Max_cycle;Signal;HPM_P1;HPM_P2
2024/04/09 00:01:37;;;;;;;14.60;5.50;;;18.90;99.90;;;19.40;61.09;97665.47;5365585;26;20235;-71
2024/04/09 00:04:04;;;;;;;21.00;5.57;;;18.90;99.90;;;19.37;61.46;97668.53;5349038;26;20243;-72
2024/04/09 00:06:30;;;;;;;16.57;5.03;;;18.90;99.90;;;19.39;61.27;97663.84;5380132;26;20305;-74
2024/04/09 00:08:56;;;;;;;17.03;4.70;;;18.80;99.90;;;19.38;61.20;97656.84;5359719;26;20589;-72
2024/04/09 00:11:22;;;;;;;25.73;5.87;;;18.80;99.90;;;19.27;62.15;97654.03;5385305;26;20527;-72
2024/04/09 00:13:54;;;;;;;18.63;5.33;;;18.80;99.90;;;19.27;62.28;97656.69;5369563;26;20489;-73
2024/04/09 00:16:22;;;;;;;22.93;5.23;;;18.80;99.90;;;19.25;63.01;97664.88;5411742;26;20315;-71
2024/04/09 00:18:49;;;;;;;18.93;5.30;;;18.80;99.90;;;19.26;62.77;97657.69;5437776;26;20529;-73
2024/04/09 00:21:15;;;;;;;21.50;5.63;;;18.70;99.90;;;19.25;62.84;97656.88;5431163;26;20587;-72
2024/04/09 00:23:41;;;;;;;21.70;5.50;;;18.70;99.90;;;18.99;63.70;97653.19;5409987;26;20992;-72
2024/04/09 00:26:06;;;;;;;18.93;5.40;;;18.70;99.90;;;18.96;63.79;97652.78;5390450;26;21782;-72
2024/04/09 00:28:32;;;;;;;18.63;5.97;;;18.60;99.90;;;18.92;63.83;97640.94;5393410;26;20248;-72
2024/04/09 00:30:58;;;;;;;18.93;5.50;;;18.60;99.90;;;18.94;64.02;97644.19;5414250;26;20285;-72
2024/04/09 00:33:24;;;;;;;20.83;5.77;;;18.50;99.90;;;18.95;63.46;97640.53;5381459;26;20295;-74
2024/04/09 00:35:51;;;;;;;21.50;5.70;;;18.50;99.90;;;18.96;62.58;97640.31;5413794;26;20509;-74
2024/04/09 00:38:19;;;;;;;25.73;5.60;;;18.50;99.90;;;18.99;62.13;97647.06;5430585;26;20255;-72
2024/04/09 00:40:45;;;;;;;20.40;6.23;;;18.50;99.90;;;19.03;61.85;97647.47;5434995;26;20573;-73
2024/04/09 00:43:12;;;;;;;19.77;5.27;;;18.50;99.90;;;19.02;61.52;97651.97;5391755;26;20542;-73
2024/04/09 00:45:40;;;;;;;19.90;5.40;;;18.50;99.90;;;19.04;59.03;97649.94;5354380;26;20489;-72
2024/04/09 00:48:06;;;;;;;27.53;5.80;;;18.50;99.90;;;19.13;55.69;97648.69;5385552;26;20476;-72
2024/04/09 00:50:35;;;;;;;21.43;5.30;;;18.60;99.90;;;19.29;52.07;97651.94;5394949;26;20528;-72
2024/04/09 00:53:01;;;;;;;30.80;5.60;;;18.60;99.90;;;19.51;48.90;97649.88;5376033;26;20562;-70
2024/04/09 00:55:27;;;;;;;20.30;5.43;;;18.80;99.90;;;19.66;48.20;97650.50;5383516;26;20537;-72
2024/04/09 00:57:54;;;;;;;30.03;6.03;;;18.90;99.90;;;19.82;46.20;97659.88;5354627;26;20464;-72
2024/04/09 01:00:20;;;;;;;35.87;6.10;;;19.00;99.90;;;19.96;46.55;97669.47;5387757;26;20541;-73
2024/04/09 01:02:48;;;;;;;30.53;5.47;;;19.20;99.90;;;20.04;45.27;97658.56;5386617;26;20591;-72
2024/04/09 01:05:15;;;;;;;33.33;6.13;;;19.30;99.90;;;20.17;44.90;97670.22;5385538;26;21089;-72
2024/04/09 01:07:42;;;;;;;25.53;5.50;;;19.40;99.90;;;20.19;45.23;97671.63;5381297;26;20521;-73
2024/04/09 01:10:07;;;;;;;29.33;6.33;;;19.50;99.90;;;20.26;45.11;97668.94;5363554;26;20471;-72
2024/04/09 01:12:34;;;;;;;33.93;6.40;;;19.60;99.90;;;20.31;44.34;97680.63;5412751;26;20488;-72
2024/04/09 01:14:59;;;;;;;27.23;5.30;;;19.70;99.90;;;20.41;44.21;97682.00;5391267;26;20255;-72
2024/04/09 01:17:27;;;;;;;34.77;5.83;;;19.80;99.90;;;20.44;42.86;97686.91;5412830;26;20525;-72
2024/04/09 01:19:52;;;;;;;39.77;6.90;;;19.90;99.90;;;20.49;42.71;97701.25;5429710;26;20244;-72
2024/04/09 01:22:18;;;;;;;28.33;5.53;;;20.00;99.90;;;20.62;41.82;97683.53;5429627;26;20529;-72
2024/04/09 01:24:44;;;;;;;25.13;5.30;;;20.10;99.90;;;20.70;41.82;97677.97;5378888;26;20325;-74
2024/04/09 01:27:17;;;;;;;25.77;5.53;;;20.00;99.90;;;20.79;41.03;97680.16;5415540;26;20293;-73
2024/04/09 01:29:43;;;;;;;21.83;5.03;;;20.30;99.90;;;20.93;40.72;97690.75;5402525;26;20240;-72
2024/04/09 01:32:10;;;;;;;30.23;5.60;;;20.30;99.90;;;20.93;40.65;97685.41;5412365;26;20480;-73
2024/04/09 01:34:36;;;;;;;24.03;5.40;;;20.40;99.90;;;20.96;40.98;97691.13;5388164;26;20481;-71
2024/04/09 01:37:03;;;;;;;30.90;6.00;;;20.50;99.90;;;20.87;41.32;97707.63;5357017;26;20530;-72
2024/04/09 01:39:29;;;;;;;26.27;5.20;;;20.50;99.90;;;20.86;41.10;97706.81;5378915;26;20468;-71
2024/04/09 01:41:55;;;;;;;31.13;5.40;;;20.50;99.90;;;20.94;41.26;97716.44;5383398;26;20501;-72
2024/04/09 01:44:22;;;;;;;21.20;4.97;;;20.60;99.90;;;20.86;41.63;97722.81;5385656;26;20468;-73
2024/04/09 01:46:48;;;;;;;30.57;6.10;;;20.60;99.90;;;20.76;42.23;97730.50;5394004;26;20482;-73
2024/04/09 01:49:19;;;;;;;16.23;3.60;;;20.50;99.90;;;20.61;42.53;97752.13;5434097;26;20476;-73
2024/04/09 01:51:45;;;;;;;14.20;3.90;;;20.40;99.90;;;20.44;43.30;97764.28;5384926;26;21184;-72
2024/04/09 01:54:10;;;;;;;15.43;3.80;;;20.30;99.90;;;20.43;43.97;97762.63;5388003;26;20473;-72
2024/04/09 01:56:36;;;;;;;13.90;3.83;;;20.20;99.90;;;20.34;44.35;97767.41;5388474;26;20243;-72
2024/04/09 01:59:02;;;;;;;16.00;3.63;;;20.20;99.90;;;20.29;44.52;97778.69;5389672;26;20278;-72
2024/04/09 02:01:28;;;;;;;14.70;3.43;;;20.10;99.90;;;20.15;45.07;97769.09;5383729;26;22760;-72
2024/04/09 02:03:56;;;;;;;12.07;3.70;;;19.90;99.90;;;20.15;45.30;97782.41;5389603;26;20263;-73
2024/04/09 02:06:23;;;;;;;15.43;3.60;;;19.90;99.90;;;19.89;45.72;97797.44;5405545;26;20865;-73
2024/04/09 02:08:50;;;;;;;14.90;4.10;;;19.70;99.90;;;19.91;45.92;97799.88;5387471;26;20454;-72
2024/04/09 02:11:17;;;;;;;12.17;3.40;;;19.70;99.90;;;19.75;47.28;97806.47;5379831;26;20537;-73
2024/04/09 02:13:43;;;;;;;11.47;3.53;;;19.50;99.90;;;19.69;47.82;97823.25;5408364;26;20536;-73
2024/04/09 02:16:09;;;;;;;12.13;3.33;;;19.40;99.90;;;19.62;47.88;97833.91;5433570;26;20465;-74
2024/04/09 02:18:38;;;;;;;12.70;3.40;;;19.40;99.90;;;19.56;48.51;97853.34;5401414;26;20243;-72
2024/04/09 02:21:07;;;;;;;11.40;3.70;;;19.30;99.90;;;19.41;49.24;97850.06;5387328;26;20473;-72
2024/04/09 02:23:33;;;;;;;11.07;3.30;;;19.20;99.90;;;19.27;50.10;97848.41;5390036;26;20988;-72
2024/04/09 02:25:59;;;;;;;16.97;3.80;;;19.10;99.90;;;19.22;50.73;97849.81;5390760;26;20545;-72
2024/04/09 02:28:25;;;;;;;11.93;3.10;;;19.10;99.90;;;19.08;51.62;97847.31;5390206;26;20517;-72
2024/04/09 02:30:51;;;;;;;9.30;3.40;;;18.90;99.90;;;19.07;52.53;97861.63;5409405;26;20232;-74
2024/04/09 02:33:17;;;;;;;19.10;2.90;;;18.80;99.90;;;18.89;52.98;97873.66;5431741;26;20243;-72
2024/04/09 02:35:58;;;;;;;10.43;3.20;;;18.70;99.90;;;18.77;53.37;97885.88;5439610;26;21342;-72
2024/04/09 02:38:29;;;;;;;6.73;2.77;;;18.70;99.90;;;18.67;53.90;97883.56;5378290;26;20459;-72
2024/04/09 02:40:55;;;;;;;10.57;2.73;;;18.60;99.90;;;18.68;54.37;97887.03;5381258;26;20625;-74
2024/04/09 02:43:24;;;;;;;7.60;2.60;;;18.50;99.90;;;18.44;54.82;97898.97;5393727;26;20470;-72
2024/04/09 02:45:50;;;;;;;9.33;2.80;;;18.40;99.90;;;18.41;54.93;97900.19;5435846;26;20244;-73
2024/04/09 02:48:16;;;;;;;9.60;2.37;;;18.30;99.90;;;18.40;54.45;97909.16;5441662;26;20555;-72
2024/04/09 02:50:59;;;;;;;10.17;3.07;;;18.20;99.90;;;18.23;55.13;97898.00;5422258;26;20787;-72
2024/04/09 02:53:25;;;;;;;6.40;2.17;;;18.10;99.90;;;18.23;55.20;97902.50;5384168;26;20571;-74
2024/04/09 02:56:10;;;;;;;8.10;2.20;;;18.10;99.90;;;18.14;55.62;97906.34;5405110;26;20601;-73
2024/04/09 02:58:36;;;;;;;9.50;2.70;;;18.00;99.90;;;18.09;56.49;97916.69;5400907;26;20480;-72
2024/04/09 03:01:08;;;;;;;7.00;2.50;;;17.90;99.90;;;18.05;56.76;97895.81;5400233;26;20553;-72
2024/04/09 03:03:35;;;;;;;7.20;2.60;;;17.90;99.90;;;18.00;57.11;97892.94;5357458;26;20481;-72
2024/04/09 03:06:09;;;;;;;6.23;2.70;;;17.80;99.90;;;17.82;58.16;97890.75;5414238;26;20469;-73
2024/04/09 03:08:36;;;;;;;7.13;2.20;;;17.80;99.90;;;17.83;58.65;97895.03;5433152;26;20478;-72
2024/04/09 03:11:08;;;;;;;8.07;2.43;;;17.70;99.90;;;17.71;58.85;97917.78;5391251;26;20476;-72
2024/04/09 03:13:34;;;;;;;7.70;2.63;;;17.60;99.90;;;17.68;59.46;97915.50;5388196;26;20530;-72
2024/04/09 03:16:00;;;;;;;9.90;2.73;;;17.60;99.90;;;17.63;59.61;97899.31;5386156;26;20564;-72
2024/04/09 03:18:26;;;;;;;8.97;2.40;;;17.50;99.90;;;17.53;60.38;97873.09;5400377;26;20481;-71
2024/04/09 03:20:58;;;;;;;5.20;2.40;;;17.40;99.90;;;17.42;61.19;97873.56;5430668;26;20236;-72
2024/04/09 03:23:24;;;;;;;5.40;2.30;;;17.30;99.90;;;17.34;61.74;97876.38;5420217;26;20242;-72
2024/04/09 03:25:50;;;;;;;6.07;2.30;;;17.30;99.90;;;17.27;62.12;97894.84;5409157;26;20521;-74
2024/04/09 03:28:15;;;;;;;5.93;2.50;;;17.10;99.90;;;17.22;62.75;97896.44;5409609;26;20308;-74
2024/04/09 03:30:41;;;;;;;8.23;2.10;;;17.10;99.90;;;16.96;64.22;97910.19;5408962;26;20273;-74
2024/04/09 03:33:07;;;;;;;7.70;2.90;;;17.00;99.90;;;16.86;65.44;97918.44;5377663;26;20299;-74
2024/04/09 03:35:32;;;;;;;7.20;2.67;;;16.90;99.90;;;16.91;66.14;97905.47;5417600;26;20235;-74
2024/04/09 03:37:58;;;;;;;5.17;2.43;;;16.80;99.90;;;16.79;67.78;97904.28;5418422;26;20239;-73
2024/04/09 03:40:24;;;;;;;7.33;2.40;;;16.80;99.90;;;16.61;69.21;97910.75;5411686;26;20235;-73
2024/04/09 03:42:50;;;;;;;4.70;2.23;;;16.60;99.90;;;16.62;69.75;97919.53;5423859;26;20623;-73
2024/04/09 03:45:16;;;;;;;7.90;4.17;;;16.60;99.90;;;16.60;70.18;97940.91;5392440;26;20259;-71
2024/04/09 03:47:42;;;;;;;6.80;2.67;;;16.50;99.90;;;16.50;70.84;97952.81;5433479;26;20457;-72
2024/04/09 03:50:08;;;;;;;6.70;2.20;;;16.40;99.90;;;16.55;70.53;97972.47;5360137;26;20252;-73
2024/04/09 03:52:34;;;;;;;5.63;2.43;;;17.50;99.90;;;16.60;70.60;97982.53;5411053;26;20530;-72
2024/04/09 03:55:00;;;;;;;5.17;2.43;;;16.40;99.90;;;16.64;70.81;97987.28;5379099;26;20259;-73
2024/04/09 03:57:25;;;;;;;6.13;2.20;;;16.50;99.90;;;16.61;70.73;97985.00;5408414;26;20297;-71
2024/04/09 03:59:51;;;;;;;6.83;2.60;;;16.40;99.90;;;16.61;71.20;97981.50;5378771;26;20244;-72
2024/04/09 04:02:17;;;;;;;7.73;2.53;;;16.40;99.90;;;16.48;72.21;97983.97;5409195;26;20285;-74
2024/04/09 04:04:43;;;;;;;7.37;2.77;;;16.40;99.90;;;16.23;74.00;98000.06;5364519;26;20282;-73
2024/04/09 04:07:15;;;;;;;8.00;2.57;;;16.20;99.90;;;16.23;74.01;97997.41;5411641;26;20584;-72
2024/04/09 04:09:41;;;;;;;6.03;2.47;;;16.20;99.90;;;16.19;74.62;97999.59;5416059;26;20247;-72
2024/04/09 04:12:07;;;;;;;6.67;2.90;;;16.10;99.90;;;16.17;75.17;98008.72;5427506;26;20525;-73
2024/04/09 04:14:33;;;;;;;10.67;2.60;;;16.10;99.90;;;15.86;76.50;98020.22;5433711;26;20256;-73
2024/04/09 04:16:58;;;;;;;8.63;2.67;;;15.90;99.90;;;15.82;76.18;98020.75;5376954;26;21012;-73
2024/04/09 04:19:24;;;;;;;8.40;2.47;;;15.80;99.90;;;15.73;76.09;98030.53;5399739;26;20255;-72
2024/04/09 04:21:50;;;;;;;9.33;3.40;;;15.80;99.90;;;15.68;76.23;98044.31;5371093;26;21240;-72
2024/04/09 04:24:15;;;;;;;3.97;2.30;;;15.70;99.90;;;15.65;75.81;98052.56;5408240;26;20289;-73
2024/04/09 04:26:41;;;;;;;4.73;2.30;;;15.50;99.90;;;15.65;75.60;98065.81;5371253;26;20329;-73
2024/04/09 04:29:08;;;;;;;6.17;2.47;;;15.60;99.90;;;15.51;75.29;98064.72;5435158;26;20239;-72
2024/04/09 04:31:34;;;;;;;4.73;2.43;;;15.50;99.90;;;15.47;75.36;98070.53;5434268;26;20252;-73
2024/04/09 04:33:59;;;;;;;5.40;2.27;;;15.40;99.90;;;15.55;75.55;98078.44;5374460;26;20526;-72
2024/04/09 04:36:26;;;;;;;5.00;2.23;;;15.40;99.90;;;15.33;75.70;98077.38;5384368;26;20291;-73
2024/04/09 04:38:52;;;;;;;3.90;2.00;;;15.40;99.90;;;15.28;75.82;98067.28;5452976;26;20280;-74
2024/04/09 04:41:17;;;;;;;5.33;1.97;;;15.30;99.90;;;15.12;75.92;98069.16;5396187;26;20473;-73
2024/04/09 04:43:43;;;;;;;3.70;2.13;;;15.10;99.90;;;15.17;75.78;98080.88;5379830;26;20863;-73
2024/04/09 04:46:09;;;;;;;3.60;2.00;;;15.10;99.90;;;15.12;76.27;98083.19;5392743;26;20281;-73
2024/04/09 04:48:37;;;;;;;3.60;1.80;;;15.10;99.90;;;15.08;76.53;98084.53;5389574;26;20513;-72
2024/04/09 04:51:03;;;;;;;4.90;2.10;;;15.00;99.90;;;15.07;76.93;98098.78;5341264;26;20484;-73
2024/04/09 04:53:29;;;;;;;3.87;2.20;;;15.00;99.90;;;15.08;76.95;98111.00;5409152;26;20472;-72
2024/04/09 04:55:54;;;;;;;4.20;2.00;;;15.00;99.90;;;14.93;77.77;98112.66;5390331;26;20568;-72
2024/04/09 04:58:20;;;;;;;4.87;2.20;;;14.90;99.90;;;15.06;77.61;98112.97;5372614;26;20256;-71
2024/04/09 05:00:46;;;;;;;3.13;2.07;;;15.00;99.90;;;15.15;77.06;98109.31;5383418;26;20997;-72
2024/04/09 05:03:12;;;;;;;3.23;2.00;;;15.00;99.90;;;15.04;77.61;98126.38;5383315;26;20247;-73
2024/04/09 05:05:38;;;;;;;3.70;1.83;;;15.00;99.90;;;14.96;77.98;98123.72;5409225;26;20251;-72
2024/04/09 05:08:04;;;;;;;3.67;2.07;;;14.90;99.90;;;14.84;78.10;98125.88;5437755;26;20256;-72
2024/04/09 05:10:30;;;;;;;3.50;1.73;;;14.80;99.90;;;14.80;78.54;98129.03;5429019;26;20476;-73
2024/04/09 05:12:56;;;;;;;4.73;2.20;;;14.80;99.90;;;14.81;78.61;98133.31;5405564;26;20511;-72
2024/04/09 05:15:23;;;;;;;3.80;1.80;;;14.80;99.90;;;14.88;78.43;98146.72;5371586;26;20484;-73
2024/04/09 05:17:50;;;;;;;4.17;2.07;;;14.80;99.90;;;14.80;77.87;98148.38;5422949;26;20552;-74
2024/04/09 05:20:17;;;;;;;3.30;1.70;;;14.70;99.90;;;14.70;78.46;98154.81;5393155;26;20481;-72
2024/04/09 05:22:46;;;;;;;4.47;2.50;;;14.70;99.90;;;14.60;79.15;98160.28;5406154;26;20532;-74
2024/04/09 05:25:13;;;;;;;4.47;1.80;;;14.60;99.90;;;14.58;79.22;98172.81;5432693;26;20847;-73
2024/04/09 05:27:40;;;;;;;3.03;1.80;;;14.60;99.90;;;14.62;79.18;98178.59;5388133;26;20589;-73
2024/04/09 05:30:07;;;;;;;4.37;2.27;;;14.60;99.90;;;14.65;79.62;98172.97;5389237;26;20568;-74
2024/04/09 05:32:41;;;;;;;5.80;2.00;;;14.50;99.90;;;14.62;80.01;98183.88;5389370;26;20491;-73
2024/04/09 05:35:11;;;;;;;3.50;2.00;;;14.50;99.90;;;14.53;79.39;98183.88;5441120;26;20508;-73
2024/04/09 05:37:38;;;;;;;2.03;1.30;;;14.50;99.90;;;14.16;77.26;98189.53;5390796;26;20572;-73
2024/04/09 05:40:08;;;;;;;2.40;1.40;;;14.30;99.90;;;13.95;77.28;98208.44;5416383;26;20484;-73
2024/04/09 05:42:38;;;;;;;2.87;1.60;;;14.10;99.90;;;13.76;77.23;98217.41;5384737;26;20857;-73
2024/04/09 05:45:08;;;;;;;2.50;1.43;;;14.00;99.90;;;13.63;77.43;98220.47;5404304;26;20460;-74
2024/04/09 05:47:34;;;;;;;4.53;1.40;;;13.80;99.90;;;13.67;76.29;98227.09;5442483;26;20883;-73
2024/04/09 05:50:00;;;;;;;2.20;1.50;;;13.70;99.90;;;13.68;76.28;98241.13;5389125;26;20461;-74
2024/04/09 05:52:28;;;;;;;2.00;1.30;;;13.70;99.90;;;13.45;76.00;98259.28;5414530;26;20477;-73
2024/04/09 05:54:55;;;;;;;2.60;1.30;;;13.60;99.90;;;13.18;77.12;98247.03;5449710;26;20259;-73
2024/04/09 05:57:22;;;;;;;2.10;1.43;;;13.40;99.90;;;13.11;77.12;98249.41;5392453;26;20484;-73
2024/04/09 05:59:48;;;;;;;3.33;1.60;;;13.20;99.90;;;13.11;77.08;98267.06;5390596;26;20469;-73
2024/04/09 06:02:14;;;;;;;6.47;1.40;;;13.20;99.90;;;12.93;77.85;98282.91;5383588;26;20548;-74
2024/04/09 06:04:40;;;;;;;4.40;1.60;;;13.00;99.90;;;12.93;77.86;98267.09;5430344;26;20975;-73
2024/04/09 06:07:06;;;;;;;2.87;1.40;;;13.00;99.90;;;12.91;75.76;98279.56;5411016;26;20243;-73
2024/04/09 06:09:31;;;;;;;2.87;1.30;;;13.00;99.90;;;12.97;74.13;98289.50;5412115;26;20341;-73
2024/04/09 06:11:58;;;;;;;3.10;1.43;;;13.00;99.90;;;12.91;73.87;98284.84;5387713;26;20240;-74
2024/04/09 06:14:23;;;;;;;3.03;1.50;;;12.90;99.90;;;12.85;73.11;98286.25;5440224;26;20255;-73
2024/04/09 06:16:52;;;;;;;4.13;1.50;;;12.90;99.90;;;12.81;72.08;98286.72;5367302;26;20872;-73
2024/04/09 06:19:18;;;;;;;2.77;1.60;;;12.80;99.90;;;12.81;71.48;98284.91;5390697;26;20373;-74
2024/04/09 06:21:43;;;;;;;3.63;1.60;;;12.80;99.90;;;12.73;70.30;98275.09;5417251;26;20488;-74
2024/04/09 06:24:09;;;;;;;3.30;1.60;;;12.80;99.90;;;12.46;68.85;98293.59;5442947;26;20424;-73
2024/04/09 06:26:35;;;;;;;3.23;1.70;;;12.60;99.90;;;12.41;69.85;98312.44;5380606;26;20805;-73
2024/04/09 06:29:01;;;;;;;2.60;1.37;;;12.50;99.90;;;12.17;68.56;98306.88;5429082;26;20239;-73
2024/04/09 06:31:27;;;;;;;4.30;1.40;;;12.40;99.90;;;12.02;69.44;98333.69;5388673;26;20513;-73
2024/04/09 06:33:52;;;;;;;4.67;1.60;;;12.20;99.90;;;12.01;71.16;98344.34;5417614;26;20239;-73
2024/04/09 06:36:18;;;;;;;4.83;1.50;;;12.10;99.90;;;12.06;70.54;98334.22;5391726;26;20273;-73
2024/04/09 06:38:44;;;;;;;4.57;1.40;;;12.10;99.90;;;12.09;71.83;98335.75;5404746;26;20286;-73
2024/04/09 06:41:09;;;;;;;3.70;1.60;;;12.10;99.90;;;12.04;71.20;98337.00;5393547;26;20521;-73
2024/04/09 06:43:37;;;;;;;4.20;1.90;;;12.10;99.90;;;11.97;71.46;98330.63;5389660;26;20580;-74
2024/04/09 06:46:03;;;;;;;3.73;1.47;;;12.10;99.90;;;11.87;71.38;98356.16;5384766;26;20287;-72
2024/04/09 06:48:30;;;;;;;2.57;1.47;;;12.00;99.90;;;11.76;71.69;98346.59;5392151;26;20519;-73
2024/04/09 06:50:56;;;;;;;2.20;1.40;;;11.90;99.90;;;11.73;70.80;98360.03;5422098;26;20826;-73
2024/04/09 06:53:21;;;;;;;2.30;1.40;;;11.80;99.90;;;11.86;71.39;98372.94;5438067;26;20255;-74
2024/04/09 06:55:49;;;;;;;5.40;1.50;;;11.90;99.90;;;11.76;71.69;98367.66;5421542;26;20299;-73
2024/04/09 06:58:14;;;;;;;3.50;1.40;;;11.80;99.90;;;11.60;71.88;98404.19;5386046;26;20244;-72
2024/04/09 07:00:40;;;;;;;2.30;1.30;;;11.70;99.90;;;11.55;73.92;98420.41;5418115;26;20523;-74
2024/04/09 07:03:07;;;;;;;2.50;1.43;;;11.60;99.90;;;11.69;75.46;98413.88;5411631;26;20264;-72
2024/04/09 07:05:33;;;;;;;3.10;1.53;;;11.70;99.90;;;11.74;75.52;98431.91;5441273;26;20252;-72
2024/04/09 07:08:00;;;;;;;4.90;1.60;;;11.70;99.90;;;11.71;75.91;98425.13;5387838;26;21061;-72
2024/04/09 07:10:29;;;;;;;3.20;1.70;;;11.70;99.90;;;11.60;76.09;98407.69;5359198;26;20246;-71
2024/04/09 07:12:55;;;;;;;8.03;2.00;;;11.70;99.90;;;11.56;78.20;98390.50;5382300;26;20512;-72
2024/04/09 07:15:26;;;;;;;4.77;1.70;;;11.60;99.90;;;11.49;76.24;98392.03;5402711;26;20576;-71
2024/04/09 07:17:53;;;;;;;3.43;1.60;;;11.50;99.90;;;11.59;77.52;98427.03;5392438;26;20400;-73
2024/04/09 07:20:18;;;;;;;3.17;1.77;;;11.60;99.90;;;11.65;77.81;98432.72;5412619;26;20465;-71
2024/04/09 07:22:44;;;;;;;2.57;1.40;;;11.60;99.90;;;11.62;79.29;98444.34;5441054;26;20529;-72
2024/04/09 07:25:12;;;;;;;3.63;2.00;;;11.60;99.90;;;11.67;79.77;98460.56;5402966;26;21072;-74
2024/04/09 07:27:39;;;;;;;3.53;1.60;;;11.60;99.90;;;11.56;79.75;98458.88;5391280;26;20298;-74
2024/04/09 07:30:06;;;;;;;6.43;1.90;;;11.60;99.90;;;11.52;80.31;98464.56;5391600;26;21054;-74
2024/04/09 07:32:32;;;;;;;10.73;2.13;;;11.60;99.90;;;11.31;80.93;98481.25;5416920;26;20525;-72
2024/04/09 07:34:59;;;;;;;5.10;2.10;;;11.50;99.90;;;11.23;81.39;98489.00;5393869;26;20463;-72
2024/04/09 07:37:25;;;;;;;4.93;1.80;;;11.40;99.90;;;11.24;81.90;98498.56;5415528;26;20491;-73
2024/04/09 07:39:50;;;;;;;4.83;1.83;;;11.40;99.90;;;11.25;81.97;98512.53;5446300;26;20624;-74
2024/04/09 07:42:16;;;;;;;4.93;1.80;;;11.30;99.90;;;11.28;82.58;98520.97;5380159;26;20290;-74
2024/04/09 07:44:42;;;;;;;6.03;1.90;;;11.30;99.90;;;10.81;82.43;98525.94;5386136;26;20293;-73
2024/04/09 07:47:10;;;;;;;6.20;2.43;;;11.00;99.90;;;10.91;83.28;98523.34;5363689;26;20320;-71
2024/04/09 07:49:37;;;;;;;4.33;2.10;;;11.00;99.90;;;10.86;83.56;98528.97;5420009;26;20252;-72
2024/04/09 07:52:04;;;;;;;3.50;1.80;;;11.00;99.90;;;10.80;82.46;98529.50;5356491;26;20479;-73
2024/04/09 07:54:30;;;;;;;4.80;2.00;;;10.90;99.90;;;10.73;82.29;98549.38;5394807;26;20589;-75
2024/04/09 07:56:56;;;;;;;7.43;2.43;;;10.90;99.90;;;10.70;82.24;98564.56;5438214;26;21301;-72
2024/04/09 07:59:22;;;;;;;5.63;2.40;;;10.80;99.90;;;10.63;82.31;98553.75;5382730;26;20242;-72
2024/04/09 08:01:50;;;;;;;4.20;2.20;;;10.80;99.90;;;10.65;82.70;98557.06;5396375;26;20242;-72
2024/04/09 08:04:16;;;;;;;6.87;2.07;;;10.80;99.90;;;10.37;82.07;98559.41;5378658;26;20488;-72
2024/04/09 08:06:42;;;;;;;4.43;2.00;;;10.60;99.90;;;10.28;85.08;98546.19;5416441;26;20473;-72
2024/04/09 08:09:11;;;;;;;6.03;2.23;;;10.50;99.90;;;10.35;85.08;98549.97;5408673;26;20478;-71
2024/04/09 08:11:42;;;;;;;6.23;2.33;;;10.50;99.90;;;10.47;85.09;98548.13;5429145;26;20292;-72
2024/04/09 08:14:11;;;;;;;9.13;2.90;;;10.50;99.90;;;10.56;85.12;98553.44;5415488;26;20621;-73
2024/04/09 08:16:38;;;;;;;3.83;1.80;;;10.50;99.90;;;10.70;84.79;98554.91;5399605;26;20519;-72
2024/04/09 08:19:04;;;;;;;5.23;1.90;;;10.60;99.90;;;10.66;83.08;98546.44;5387923;26;20559;-72
2024/04/09 08:21:31;;;;;;;3.97;1.90;;;10.70;99.90;;;10.58;81.65;98559.38;5412962;26;20474;-74
2024/04/09 08:23:56;;;;;;;7.37;2.10;;;10.60;99.90;;;10.64;81.41;98566.75;5359476;26;20252;-72
2024/04/09 08:26:23;;;;;;;12.03;2.30;;;10.60;99.90;;;10.72;81.43;98573.13;5387007;26;20529;-71
2024/04/09 08:28:51;;;;;;;7.30;2.00;;;10.70;99.90;;;10.45;79.25;98577.13;5385256;26;20334;-71
2024/04/09 08:31:17;;;;;;;5.73;1.80;;;10.60;99.90;;;10.40;80.22;98598.53;5379055;26;20579;-73
2024/04/09 08:33:43;;;;;;;7.70;1.90;;;10.60;99.90;;;10.20;78.88;98607.16;5386873;26;21132;-72
2024/04/09 08:36:08;;;;;;;7.93;2.00;;;10.40;99.90;;;10.26;80.64;98608.44;5408890;26;21684;-72
2024/04/09 08:38:34;;;;;;;6.40;1.80;;;10.40;99.90;;;10.22;79.42;98613.13;5376994;26;20274;-74
2024/04/09 08:41:07;;;;;;;3.80;1.70;;;10.40;99.90;;;10.06;78.85;98634.53;5397566;26;20291;-73
2024/04/09 08:43:33;;;;;;;5.10;1.90;;;10.30;99.90;;;9.96;80.15;98626.56;5423549;26;20299;-71
2024/04/09 08:45:59;;;;;;;5.80;1.80;;;10.20;99.90;;;10.07;81.07;98630.09;5392054;26;20606;-73
2024/04/09 08:48:26;;;;;;;5.13;2.10;;;10.20;99.90;;;10.14;82.49;98624.22;5383911;26;20555;-72
2024/04/09 08:50:54;;;;;;;4.83;2.00;;;10.20;99.90;;;10.26;82.54;98629.44;5375938;26;20265;-74
2024/04/09 08:53:23;;;;;;;7.43;1.90;;;10.30;99.90;;;10.21;82.28;98633.28;5426873;26;20537;-73
2024/04/09 08:55:50;;;;;;;6.70;2.10;;;10.30;99.90;;;10.15;83.79;98636.41;5379703;26;20515;-73
2024/04/09 08:58:16;;;;;;;4.83;2.10;;;10.30;99.90;;;10.32;84.96;98649.97;5438126;26;20530;-73
2024/04/09 09:00:42;;;;;;;9.70;2.30;;;10.30;99.90;;;10.21;84.47;98658.69;5416953;26;20472;-72
2024/04/09 09:03:07;;;;;;;7.40;3.30;;;10.30;99.90;;;10.28;84.76;98665.16;5389333;26;20890;-74
2024/04/09 09:05:33;;;;;;;10.77;3.73;;;10.30;99.90;;;10.25;85.29;98678.50;5382407;26;20289;-74
2024/04/09 09:08:00;;;;;;;5.93;2.33;;;10.30;99.90;;;10.19;86.24;98671.13;5406484;26;20322;-73
2024/04/09 09:10:27;;;;;;;4.17;2.37;;;10.30;99.90;;;10.44;86.94;98670.00;5391080;26;20890;-71
2024/04/09 09:13:04;;;;;;;6.53;2.70;;;10.40;99.90;;;10.49;86.45;98685.38;5380811;26;20465;-72
2024/04/09 09:15:31;;;;;;;5.20;2.30;;;10.40;99.90;;;10.46;85.54;98680.38;5384706;26;20685;-72
2024/04/09 09:17:56;;;;;;;4.00;1.70;;;10.50;99.90;;;10.16;82.46;98685.31;5383481;26;20483;-72
2024/04/09 09:20:23;;;;;;;8.30;2.07;;;10.30;99.90;;;10.06;82.82;98694.06;5388161;26;20578;-72
2024/04/09 09:22:51;;;;;;;3.57;1.87;;;10.30;99.90;;;9.89;80.48;98698.81;5385112;26;20262;-72
2024/04/09 09:25:22;;;;;;;4.30;1.80;;;10.10;99.90;;;9.83;79.69;98704.53;5402578;26;20497;-74
2024/04/09 09:27:49;;;;;;;3.97;2.17;;;10.00;99.90;;;9.81;81.78;98714.34;5382457;26;20473;-71
2024/04/09 09:30:15;;;;;;;10.13;2.00;;;10.00;99.90;;;9.95;81.92;98718.50;5430081;26;20541;-73
2024/04/09 09:32:49;;;;;;;3.57;1.70;;;10.00;99.90;;;10.01;81.26;98711.94;5440258;26;20477;-72
2024/04/09 09:35:19;;;;;;;4.87;1.80;;;10.10;99.90;;;9.91;79.40;98703.97;5410327;26;20579;-71
2024/04/09 09:37:51;;;;;;;2.77;1.77;;;10.00;99.90;;;9.87;79.68;98699.91;5354795;26;20544;-72
2024/04/09 09:40:18;;;;;;;5.67;2.10;;;9.90;99.90;;;10.06;81.25;98701.94;5391159;26;20522;-72
2024/04/09 09:42:47;;;;;;;2.80;1.60;;;10.00;99.90;;;10.13;80.25;98693.44;5400069;26;20525;-73
2024/04/09 09:45:14;;;;;;;3.93;1.80;;;10.10;99.90;;;10.07;78.83;98698.34;5369863;26;20612;-73
2024/04/09 09:47:41;;;;;;;3.40;1.70;;;10.10;99.90;;;10.19;80.60;98703.44;5381198;26;21009;-71
2024/04/09 09:50:11;;;;;;;5.80;1.87;;;10.10;99.90;;;10.35;80.04;98712.75;5371056;26;20560;-72
2024/04/09 09:52:40;;;;;;;3.73;1.63;;;10.30;99.90;;;10.44;79.72;98719.88;5403377;26;20524;-72
2024/04/09 09:55:07;;;;;;;5.37;1.97;;;10.30;99.90;;;10.18;78.55;98700.91;5375521;26;20543;-73
2024/04/09 09:57:35;;;;;;;5.37;1.70;;;10.30;99.90;;;10.22;78.94;98702.38;5410602;26;20587;-74
2024/04/09 10:00:11;;;;;;;3.60;1.87;;;10.20;99.90;;;10.38;80.25;98704.63;5434829;26;20602;-71
2024/04/09 10:02:42;;;;;;;7.77;2.20;;;10.30;99.90;;;10.60;80.44;98704.56;5440662;26;20528;-71
2024/04/09 10:05:11;;;;;;;6.67;2.10;;;10.40;99.90;;;10.61;79.37;98708.84;5436876;26;20475;-72
2024/04/09 10:07:37;;;;;;;7.20;2.10;;;10.50;99.90;;;10.40;79.65;98705.31;5391621;26;20538;-71
2024/04/09 10:10:03;;;;;;;5.63;2.20;;;10.40;99.90;;;10.33;80.04;98718.09;5399055;26;20899;-72
2024/04/09 10:12:34;;;;;;;5.77;2.10;;;10.40;99.90;;;10.43;81.66;98723.44;5425321;26;20263;-71
2024/04/09 10:15:20;;;;;;;6.03;2.03;;;10.40;99.90;;;10.31;80.96;98725.28;5418111;26;20489;-73
2024/04/09 10:17:53;;;;;;;4.20;1.90;;;10.40;99.90;;;10.61;81.89;98737.72;5366677;26;20601;-71